Terminal Aerodrome Forecast
Issued by NWS Billings, MT

Home | Current Version | Previous Version | Text Only | Print | Product List | Glossary Off
Versions: 1 2 3 4 5 6 7 8 9 10 11 12 13 14 15 16

000
FTUS45 KBYZ 021724
TAFMLS
TAF
KMLS 021724Z 0218/0318 15005KT P6SM SCT020 SCT060
     FM022100 25010KT P6SM SCT060
     FM031200 25010KT P6SM VCSH BKN050=

USA.gov is the U.S. government's official web portal to all federal, state and local government web resources and services.